sensor_id;sensor_type;location;lat;lon;timestamp;pressure;altitude;pressure_sealevel;temperature;humidity
78016;BME280;67223;51.102;5.882;2023-04-07T00:01:17;101283.25;;;8.61;91.18
78016;BME280;67223;51.102;5.882;2023-04-07T00:03:42;101290.16;;;8.51;91.32
78016;BME280;67223;51.102;5.882;2023-04-07T00:06:08;101292.81;;;8.51;91.34
78016;BME280;67223;51.102;5.882;2023-04-07T00:08:34;101288.72;;;8.46;91.70
78016;BME280;67223;51.102;5.882;2023-04-07T00:11:02;101294.31;;;8.55;91.19
78016;BME280;67223;51.102;5.882;2023-04-07T00:13:27;101277.81;;;8.63;91.10
78016;BME280;67223;51.102;5.882;2023-04-07T00:15:53;101280.59;;;8.61;91.49
78016;BME280;67223;51.102;5.882;2023-04-07T00:18:18;101287.44;;;8.66;91.44
78016;BME280;67223;51.102;5.882;2023-04-07T00:20:44;101294.84;;;8.60;91.00
78016;BME280;67223;51.102;5.882;2023-04-07T00:23:09;101289.31;;;8.63;91.31
78016;BME280;67223;51.102;5.882;2023-04-07T00:25:35;101297.81;;;8.56;91.17
78016;BME280;67223;51.102;5.882;2023-04-07T00:28:00;101300.19;;;8.60;91.07
78016;BME280;67223;51.102;5.882;2023-04-07T00:30:26;101289.41;;;8.62;90.96
78016;BME280;67223;51.102;5.882;2023-04-07T00:32:51;101291.91;;;8.78;91.74
78016;BME280;67223;51.102;5.882;2023-04-07T00:35:17;101285.16;;;8.59;91.09
78016;BME280;67223;51.102;5.882;2023-04-07T00:37:42;101284.31;;;8.59;91.62
78016;BME280;67223;51.102;5.882;2023-04-07T00:40:08;101277.94;;;8.61;91.04
78016;BME280;67223;51.102;5.882;2023-04-07T00:42:33;101283.44;;;8.58;91.31
78016;BME280;67223;51.102;5.882;2023-04-07T00:44:59;101279.69;;;8.48;91.63
78016;BME280;67223;51.102;5.882;2023-04-07T00:47:25;101280.38;;;8.64;91.76
78016;BME280;67223;51.102;5.882;2023-04-07T00:49:50;101282.34;;;8.48;91.16
78016;BME280;67223;51.102;5.882;2023-04-07T00:52:16;101279.69;;;8.48;91.74
78016;BME280;67223;51.102;5.882;2023-04-07T00:54:43;101269.50;;;8.55;91.67
78016;BME280;67223;51.102;5.882;2023-04-07T00:57:11;101276.41;;;8.57;91.38
78016;BME280;67223;51.102;5.882;2023-04-07T00:59:36;101283.44;;;8.58;91.28
78016;BME280;67223;51.102;5.882;2023-04-07T01:02:17;101280.22;;;8.53;91.72
78016;BME280;67223;51.102;5.882;2023-04-07T01:05:17;101286.41;;;8.54;91.32
78016;BME280;67223;51.102;5.882;2023-04-07T01:08:13;101283.66;;;8.55;91.26
78016;BME280;67223;51.102;5.882;2023-04-07T01:10:47;101288.44;;;8.50;91.31
78016;BME280;67223;51.102;5.882;2023-04-07T01:13:22;101287.03;;;8.45;91.32
78016;BME280;67223;51.102;5.882;2023-04-07T01:15:51;101286.06;;;8.46;91.22
78016;BME280;67223;51.102;5.882;2023-04-07T01:18:23;101296.81;;;8.44;91.59
78016;BME280;67223;51.102;5.882;2023-04-07T01:20:53;101285.22;;;8.45;91.50
78016;BME280;67223;51.102;5.882;2023-04-07T01:23:30;101283.41;;;8.46;91.21
78016;BME280;67223;51.102;5.882;2023-04-07T01:26:20;101289.88;;;8.28;90.91
78016;BME280;67223;51.102;5.882;2023-04-07T01:31:40;101286.94;;;8.32;91.22
78016;BME280;67223;51.102;5.882;2023-04-07T01:34:09;101295.91;;;8.31;91.66
78016;BME280;67223;51.102;5.882;2023-04-07T01:36:35;101292.09;;;8.35;91.04
78016;BME280;67223;51.102;5.882;2023-04-07T01:39:01;101298.34;;;8.34;91.31
78016;BME280;67223;51.102;5.882;2023-04-07T01:41:27;101301.97;;;8.33;90.87
78016;BME280;67223;51.102;5.882;2023-04-07T01:43:54;101299.56;;;8.29;91.03
78016;BME280;67223;51.102;5.882;2023-04-07T01:46:20;101300.63;;;8.26;91.09
78016;BME280;67223;51.102;5.882;2023-04-07T01:48:47;101299.66;;;8.27;91.03
78016;BME280;67223;51.102;5.882;2023-04-07T01:51:13;101301.50;;;8.27;91.16
78016;BME280;67223;51.102;5.882;2023-04-07T01:53:44;101292.53;;;8.28;90.82
78016;BME280;67223;51.102;5.882;2023-04-07T01:56:10;101299.00;;;8.23;91.09
78016;BME280;67223;51.102;5.882;2023-04-07T01:58:35;101298.16;;;8.23;91.06
78016;BME280;67223;51.102;5.882;2023-04-07T02:01:01;101296.56;;;8.20;91.11
78016;BME280;67223;51.102;5.882;2023-04-07T02:03:39;101302.81;;;8.19;91.13
78016;BME280;67223;51.102;5.882;2023-04-07T02:06:08;101290.69;;;8.15;90.78
78016;BME280;67223;51.102;5.882;2023-04-07T02:08:38;101300.94;;;8.21;90.95
78016;BME280;67223;51.102;5.882;2023-04-07T02:11:07;101305.28;;;8.22;90.90
78016;BME280;67223;51.102;5.882;2023-04-07T02:13:36;101302.63;;;8.22;90.58
78016;BME280;67223;51.102;5.882;2023-04-07T02:16:02;101303.03;;;8.16;90.86
78016;BME280;67223;51.102;5.882;2023-04-07T02:18:30;101300.06;;;8.21;90.70
78016;BME280;67223;51.102;5.882;2023-04-07T02:20:57;101301.75;;;8.22;90.77
78016;BME280;67223;51.102;5.882;2023-04-07T02:23:24;101300.47;;;8.15;90.73
78016;BME280;67223;51.102;5.882;2023-04-07T02:25:49;101302.91;;;8.18;90.73
78016;BME280;67223;51.102;5.882;2023-04-07T02:28:14;101304.41;;;8.22;90.48
78016;BME280;67223;51.102;5.882;2023-04-07T02:30:40;101310.50;;;8.24;90.41
78016;BME280;67223;51.102;5.882;2023-04-07T02:33:06;101309.56;;;8.25;90.77
78016;BME280;67223;51.102;5.882;2023-04-07T02:35:31;101307.00;;;8.23;90.39
78016;BME280;67223;51.102;5.882;2023-04-07T02:37:57;101306.13;;;8.23;90.60
78016;BME280;67223;51.102;5.882;2023-04-07T02:40:22;101303.47;;;8.23;90.80
78016;BME280;67223;51.102;5.882;2023-04-07T02:42:48;101308.06;;;8.21;90.79
78016;BME280;67223;51.102;5.882;2023-04-07T02:45:13;101312.41;;;8.22;90.91
78016;BME280;67223;51.102;5.882;2023-04-07T02:47:40;101312.22;;;8.25;90.50
78016;BME280;67223;51.102;5.882;2023-04-07T02:50:06;101307.00;;;8.23;90.19
78016;BME280;67223;51.102;5.882;2023-04-07T02:52:31;101315.19;;;8.20;90.49
78016;BME280;67223;51.102;5.882;2023-04-07T02:54:57;101318.88;;;8.18;90.13
78016;BME280;67223;51.102;5.882;2023-04-07T02:57:22;101319.44;;;8.23;90.68
78016;BME280;67223;51.102;5.882;2023-04-07T02:59:48;101310.44;;;8.26;90.70
78016;BME280;67223;51.102;5.882;2023-04-07T03:04:50;101315.84;;;8.24;90.22
78016;BME280;67223;51.102;5.882;2023-04-07T03:07:16;101316.47;;;8.28;90.21
78016;BME280;67223;51.102;5.882;2023-04-07T03:09:42;101307.75;;;8.26;90.65
78016;BME280;67223;51.102;5.882;2023-04-07T03:12:07;101313.38;;;8.21;90.91
78016;BME280;67223;51.102;5.882;2023-04-07T03:14:32;101309.00;;;8.20;90.23
78016;BME280;67223;51.102;5.882;2023-04-07T03:16:58;101313.25;;;8.22;90.14
78016;BME280;67223;51.102;5.882;2023-04-07T03:19:23;101326.97;;;8.16;90.43
78016;BME280;67223;51.102;5.882;2023-04-07T03:21:49;101312.22;;;8.25;90.42
78016;BME280;67223;51.102;5.882;2023-04-07T03:24:14;101309.75;;;8.22;90.27
78016;BME280;67223;51.102;5.882;2023-04-07T03:26:40;101317.94;;;8.19;90.49
78016;BME280;67223;51.102;5.882;2023-04-07T03:29:06;101315.06;;;8.22;90.45
78016;BME280;67223;51.102;5.882;2023-04-07T03:31:31;101321.25;;;8.22;90.73
78016;BME280;67223;51.102;5.882;2023-04-07T03:33:57;101322.41;;;8.18;90.54
78016;BME280;67223;51.102;5.882;2023-04-07T03:36:22;101327.81;;;8.17;90.53
78016;BME280;67223;51.102;5.882;2023-04-07T03:38:48;101318.78;;;8.19;90.29
78016;BME280;67223;51.102;5.882;2023-04-07T03:41:14;101321.19;;;8.10;90.68
78016;BME280;67223;51.102;5.882;2023-04-07T03:43:39;101319.00;;;8.16;90.63
78016;BME280;67223;51.102;5.882;2023-04-07T03:46:05;101320.81;;;8.16;90.34
78016;BME280;67223;51.102;5.882;2023-04-07T03:48:31;101317.06;;;8.18;89.79
78016;BME280;67223;51.102;5.882;2023-04-07T03:50:56;101321.53;;;8.18;90.29
78016;BME280;67223;51.102;5.882;2023-04-07T03:53:22;101325.91;;;8.19;89.88
78016;BME280;67223;51.102;5.882;2023-04-07T03:55:47;101324.13;;;8.19;89.77
78016;BME280;67223;51.102;5.882;2023-04-07T03:58:13;101321.44;;;8.19;89.69
78016;BME280;67223;51.102;5.882;2023-04-07T04:00:38;101324.59;;;8.12;89.50
78016;BME280;67223;51.102;5.882;2023-04-07T04:03:04;101321.44;;;8.19;89.58
78016;BME280;67223;51.102;5.882;2023-04-07T04:05:30;101327.94;;;8.15;89.63
78016;BME280;67223;51.102;5.882;2023-04-07T04:07:55;101331.44;;;8.16;89.17
78016;BME280;67223;51.102;5.882;2023-04-07T04:10:21;101334.47;;;8.10;88.78
78016;BME280;67223;51.102;5.882;2023-04-07T04:12:47;101336.19;;;8.11;88.88
78016;BME280;67223;51.102;5.882;2023-04-07T04:15:13;101336.94;;;8.13;88.58
78016;BME280;67223;51.102;5.882;2023-04-07T04:17:38;101333.25;;;8.15;88.60
78016;BME280;67223;51.102;5.882;2023-04-07T04:20:04;101339.81;;;8.10;88.18
78016;BME280;67223;51.102;5.882;2023-04-07T04:22:30;101339.81;;;8.10;87.95
78016;BME280;67223;51.102;5.882;2023-04-07T04:24:56;101341.97;;;8.17;88.13
78016;BME280;67223;51.102;5.882;2023-04-07T04:27:21;101347.69;;;8.11;88.51
78016;BME280;67223;51.102;5.882;2023-04-07T04:29:47;101340.19;;;8.04;88.27
78016;BME280;67223;51.102;5.882;2023-04-07T04:32:14;101336.19;;;8.11;88.10
78016;BME280;67223;51.102;5.882;2023-04-07T04:34:39;101338.66;;;8.14;88.00
78016;BME280;67223;51.102;5.882;2023-04-07T04:37:06;101343.41;;;8.09;88.09
78016;BME280;67223;51.102;5.882;2023-04-07T04:39:32;101343.78;;;8.03;87.95
78016;BME280;67223;51.102;5.882;2023-04-07T04:41:58;101355.09;;;8.06;88.28
78016;BME280;67223;51.102;5.882;2023-04-07T04:44:23;101359.38;;;8.09;87.76
78016;BME280;67223;51.102;5.882;2023-04-07T04:46:49;101365.75;;;8.06;87.87
78016;BME280;67223;51.102;5.882;2023-04-07T04:49:14;101367.94;;;8.00;87.95
78016;BME280;67223;51.102;5.882;2023-04-07T04:51:40;101364.13;;;8.04;87.97
78016;BME280;67223;51.102;5.882;2023-04-07T04:54:06;101376.75;;;8.00;88.09
78016;BME280;67223;51.102;5.882;2023-04-07T04:56:32;101373.34;;;7.98;88.01
78016;BME280;67223;51.102;5.882;2023-04-07T04:58:57;101376.56;;;8.03;87.78
78016;BME280;67223;51.102;5.882;2023-04-07T05:01:23;101375.41;;;7.93;87.89
78016;BME280;67223;51.102;5.882;2023-04-07T05:03:48;101387.78;;;7.94;87.85
78016;BME280;67223;51.102;5.882;2023-04-07T05:06:14;101376.28;;;7.94;88.21
78016;BME280;67223;51.102;5.882;2023-04-07T05:08:39;101387.97;;;7.91;87.65
78016;BME280;67223;51.102;5.882;2023-04-07T05:11:05;101383.50;;;7.92;87.88
78016;BME280;67223;51.102;5.882;2023-04-07T05:13:30;101386.16;;;7.92;87.66
78016;BME280;67223;51.102;5.882;2023-04-07T05:15:55;101380.00;;;8.05;87.41
78016;BME280;67223;51.102;5.882;2023-04-07T05:18:21;101386.53;;;8.00;87.68
78016;BME280;67223;51.102;5.882;2023-04-07T05:20:47;101390.63;;;8.05;87.31
78016;BME280;67223;51.102;5.882;2023-04-07T05:23:13;101395.94;;;8.05;87.45
78016;BME280;67223;51.102;5.882;2023-04-07T05:25:38;101399.06;;;7.98;87.50
78016;BME280;67223;51.102;5.882;2023-04-07T05:28:04;101396.41;;;7.98;87.40
78016;BME280;67223;51.102;5.882;2023-04-07T05:30:30;101393.75;;;7.98;87.85
78016;BME280;67223;51.102;5.882;2023-04-07T05:32:56;101396.25;;;8.01;87.48
78016;BME280;67223;51.102;5.882;2023-04-07T05:35:21;101389.00;;;8.03;87.18
78016;BME280;67223;51.102;5.882;2023-04-07T05:37:46;101396.25;;;8.01;87.85
78016;BME280;67223;51.102;5.882;2023-04-07T05:40:12;101401.84;;;7.96;87.47
78016;BME280;67223;51.102;5.882;2023-04-07T05:42:37;101396.03;;;7.90;87.75
78016;BME280;67223;51.102;5.882;2023-04-07T05:45:03;101401.06;;;7.94;87.88
78016;BME280;67223;51.102;5.882;2023-04-07T05:47:29;101395.66;;;7.96;87.91
78016;BME280;67223;51.102;5.882;2023-04-07T05:49:55;101396.91;;;7.90;88.22
78016;BME280;67223;51.102;5.882;2023-04-07T05:52:20;101399.94;;;7.98;87.48
78016;BME280;67223;51.102;5.882;2023-04-07T05:54:45;101398.91;;;8.01;87.40
78016;BME280;67223;51.102;5.882;2023-04-07T05:57:11;101398.97;;;7.99;87.43
78016;BME280;67223;51.102;5.882;2023-04-07T05:59:36;101404.50;;;7.96;87.51
78016;BME280;67223;51.102;5.882;2023-04-07T06:02:02;101405.94;;;8.02;87.78
78016;BME280;67223;51.102;5.882;2023-04-07T06:04:28;101401.44;;;8.02;87.37
78016;BME280;67223;51.102;5.882;2023-04-07T06:06:54;101405.72;;;8.05;86.85
78016;BME280;67223;51.102;5.882;2023-04-07T06:09:22;101415.03;;;7.98;87.21
78016;BME280;67223;51.102;5.882;2023-04-07T06:11:48;101418.94;;;8.06;87.24
78016;BME280;67223;51.102;5.882;2023-04-07T06:14:16;101422.13;;;7.83;87.47
78016;BME280;67223;51.102;5.882;2023-04-07T06:16:41;101431.09;;;8.10;86.83
78016;BME280;67223;51.102;5.882;2023-04-07T06:19:07;101418.66;;;7.97;87.22
78016;BME280;67223;51.102;5.882;2023-04-07T06:21:32;101427.66;;;8.08;87.11
78016;BME280;67223;51.102;5.882;2023-04-07T06:23:58;101421.56;;;7.92;87.13
78016;BME280;67223;51.102;5.882;2023-04-07T06:26:24;101429.47;;;7.94;87.70
78016;BME280;67223;51.102;5.882;2023-04-07T06:28:49;101427.09;;;8.03;87.12
78016;BME280;67223;51.102;5.882;2023-04-07T06:31:16;101433.09;;;8.07;87.10
78016;BME280;67223;51.102;5.882;2023-04-07T06:33:43;101437.22;;;7.83;86.98
78016;BME280;67223;51.102;5.882;2023-04-07T06:36:09;101438.59;;;8.04;87.40
78016;BME280;67223;51.102;5.882;2023-04-07T06:38:34;101444.84;;;8.03;87.12
78016;BME280;67223;51.102;5.882;2023-04-07T06:41:00;101449.16;;;8.05;86.78
78016;BME280;67223;51.102;5.882;2023-04-07T06:43:25;101446.22;;;8.10;86.51
78016;BME280;67223;51.102;5.882;2023-04-07T06:45:51;101454.28;;;8.08;86.87
78016;BME280;67223;51.102;5.882;2023-04-07T06:48:16;101458.34;;;8.14;86.50
78016;BME280;67223;51.102;5.882;2023-04-07T06:50:45;101458.44;;;8.12;86.33
78016;BME280;67223;51.102;5.882;2023-04-07T06:53:11;101459.00;;;8.03;86.96
78016;BME280;67223;51.102;5.882;2023-04-07T06:55:36;101464.91;;;7.94;86.38
78016;BME280;67223;51.102;5.882;2023-04-07T06:58:02;101470.06;;;8.11;86.84
78016;BME280;67223;51.102;5.882;2023-04-07T07:00:27;101475.53;;;8.08;87.14
78016;BME280;67223;51.102;5.882;2023-04-07T07:02:55;101488.84;;;8.08;86.87
78016;BME280;67223;51.102;5.882;2023-04-07T07:05:21;101479.16;;;8.07;87.04
78016;BME280;67223;51.102;5.882;2023-04-07T07:07:47;101480.78;;;8.10;87.37
78016;BME280;67223;51.102;5.882;2023-04-07T07:10:13;101479.25;;;8.06;87.14
78016;BME280;67223;51.102;5.882;2023-04-07T07:12:38;101486.75;;;8.13;87.25
78016;BME280;67223;51.102;5.882;2023-04-07T07:15:04;101484.75;;;8.03;86.98
78016;BME280;67223;51.102;5.882;2023-04-07T07:17:30;101477.06;;;8.12;86.58
78016;BME280;67223;51.102;5.882;2023-04-07T07:19:55;101484.19;;;8.12;87.51
78016;BME280;67223;51.102;5.882;2023-04-07T07:22:21;101488.00;;;8.22;87.40
78016;BME280;67223;51.102;5.882;2023-04-07T07:24:46;101488.84;;;8.22;87.30
78016;BME280;67223;51.102;5.882;2023-04-07T07:27:12;101494.00;;;8.26;87.26
78016;BME280;67223;51.102;5.882;2023-04-07T07:29:37;101504.47;;;8.29;87.12
78016;BME280;67223;51.102;5.882;2023-04-07T07:32:03;101495.97;;;8.22;87.09
78016;BME280;67223;51.102;5.882;2023-04-07T07:34:28;101494.75;;;8.28;87.05
78016;BME280;67223;51.102;5.882;2023-04-07T07:36:54;101497.53;;;8.26;86.95
78016;BME280;67223;51.102;5.882;2023-04-07T07:39:19;101499.41;;;8.24;86.72
78016;BME280;67223;51.102;5.882;2023-04-07T07:41:45;101503.34;;;8.33;86.76
78016;BME280;67223;51.102;5.882;2023-04-07T07:44:11;101502.81;;;8.12;86.11
78016;BME280;67223;51.102;5.882;2023-04-07T07:46:36;101499.75;;;8.34;86.48
78016;BME280;67223;51.102;5.882;2023-04-07T07:49:07;101503.25;;;8.34;86.03
78016;BME280;67223;51.102;5.882;2023-04-07T07:51:33;101512.47;;;8.43;86.62
78016;BME280;67223;51.102;5.882;2023-04-07T07:53:58;101504.59;;;8.41;86.43
78016;BME280;67223;51.102;5.882;2023-04-07T07:56:24;101510.31;;;8.35;86.42
78016;BME280;67223;51.102;5.882;2023-04-07T07:58:49;101516.41;;;8.51;86.79
78016;BME280;67223;51.102;5.882;2023-04-07T08:01:15;101511.06;;;8.51;87.10
78016;BME280;67223;51.102;5.882;2023-04-07T08:03:40;101516.13;;;8.56;87.16
78016;BME280;67223;51.102;5.882;2023-04-07T08:06:06;101525.41;;;8.63;86.55
78016;BME280;67223;51.102;5.882;2023-04-07T08:08:33;101522.09;;;8.45;86.71
78016;BME280;67223;51.102;5.882;2023-04-07T08:10:59;101518.94;;;8.67;86.76
78016;BME280;67223;51.102;5.882;2023-04-07T08:13:24;101526.84;;;8.54;86.95
78016;BME280;67223;51.102;5.882;2023-04-07T08:15:50;101531.00;;;8.73;87.03
78016;BME280;67223;51.102;5.882;2023-04-07T08:18:15;101525.97;;;8.82;87.02
78016;BME280;67223;51.102;5.882;2023-04-07T08:20:41;101534.81;;;8.83;86.44
78016;BME280;67223;51.102;5.882;2023-04-07T08:23:06;101535.03;;;8.66;85.88
78016;BME280;67223;51.102;5.882;2023-04-07T08:25:32;101535.88;;;8.66;86.14
78016;BME280;67223;51.102;5.882;2023-04-07T08:27:57;101534.38;;;8.76;85.65
78016;BME280;67223;51.102;5.882;2023-04-07T08:30:23;101539.56;;;8.78;85.99
78016;BME280;67223;51.102;5.882;2023-04-07T08:32:48;101543.94;;;8.79;86.01
78016;BME280;67223;51.102;5.882;2023-04-07T08:35:13;101537.56;;;8.95;85.87
78016;BME280;67223;51.102;5.882;2023-04-07T08:37:40;101538.22;;;8.99;85.36
78016;BME280;67223;51.102;5.882;2023-04-07T08:40:06;101547.63;;;9.04;85.33
78016;BME280;67223;51.102;5.882;2023-04-07T08:42:33;101548.97;;;8.97;85.17
78016;BME280;67223;51.102;5.882;2023-04-07T08:45:05;101547.25;;;9.11;85.49
78016;BME280;67223;51.102;5.882;2023-04-07T08:47:33;101552.47;;;9.12;85.56
78016;BME280;67223;51.102;5.882;2023-04-07T08:50:09;101558.25;;;9.19;85.72
78016;BME280;67223;51.102;5.882;2023-04-07T08:52:54;101558.19;;;9.20;85.18
78016;BME280;67223;51.102;5.882;2023-04-07T08:55:20;101560.06;;;9.18;85.47
78016;BME280;67223;51.102;5.882;2023-04-07T08:57:46;101554.94;;;9.15;85.02
78016;BME280;67223;51.102;5.882;2023-04-07T09:00:12;101559.31;;;9.02;84.64
78016;BME280;67223;51.102;5.882;2023-04-07T09:02:40;101560.66;;;9.09;84.54
78016;BME280;67223;51.102;5.882;2023-04-07T09:05:08;101562.97;;;9.01;84.51
78016;BME280;67223;51.102;5.882;2023-04-07T09:07:35;101565.00;;;9.24;84.27
78016;BME280;67223;51.102;5.882;2023-04-07T09:10:01;101569.75;;;9.33;83.94
78016;BME280;67223;51.102;5.882;2023-04-07T09:12:28;101569.16;;;9.42;83.64
78016;BME280;67223;51.102;5.882;2023-04-07T09:14:55;101567.84;;;9.35;83.83
78016;BME280;67223;51.102;5.882;2023-04-07T09:17:20;101574.34;;;9.31;83.14
78016;BME280;67223;51.102;5.882;2023-04-07T09:19:47;101569.00;;;9.17;82.95
78016;BME280;67223;51.102;5.882;2023-04-07T09:22:12;101570.25;;;9.26;83.66
78016;BME280;67223;51.102;5.882;2023-04-07T09:24:40;101579.66;;;9.17;83.14
78016;BME280;67223;51.102;5.882;2023-04-07T09:29:35;101572.97;;;9.38;82.04
78016;BME280;67223;51.102;5.882;2023-04-07T09:32:00;101577.69;;;9.47;81.72
78016;BME280;67223;51.102;5.882;2023-04-07T09:36:57;101579.28;;;9.64;81.69
78016;BME280;67223;51.102;5.882;2023-04-07T09:39:23;101564.78;;;9.68;81.28
78016;BME280;67223;51.102;5.882;2023-04-07T09:41:49;101563.50;;;9.61;81.08
78016;BME280;67223;51.102;5.882;2023-04-07T09:44:15;101569.25;;;9.68;81.17
78016;BME280;67223;51.102;5.882;2023-04-07T09:46:57;101572.63;;;9.57;80.68
78016;BME280;67223;51.102;5.882;2023-04-07T09:49:26;101569.09;;;9.57;79.96
78016;BME280;67223;51.102;5.882;2023-04-07T09:52:02;101572.94;;;9.52;80.14
78016;BME280;67223;51.102;5.882;2023-04-07T09:54:37;101575.97;;;9.61;80.57
78016;BME280;67223;51.102;5.882;2023-04-07T09:57:04;101573.94;;;9.64;80.17
78016;BME280;67223;51.102;5.882;2023-04-07T09:59:32;101571.00;;;9.81;80.54
78016;BME280;67223;51.102;5.882;2023-04-07T10:01:58;101579.16;;;9.92;79.89
78016;BME280;67223;51.102;5.882;2023-04-07T10:04:24;101568.94;;;9.99;79.22
78016;BME280;67223;51.102;5.882;2023-04-07T10:06:54;101573.59;;;10.22;78.57
78016;BME280;67223;51.102;5.882;2023-04-07T10:09:25;101572.31;;;10.28;78.52
78016;BME280;67223;51.102;5.882;2023-04-07T10:11:52;101574.41;;;10.10;77.40
78016;BME280;67223;51.102;5.882;2023-04-07T10:14:18;101576.38;;;10.33;76.96
78016;BME280;67223;51.102;5.882;2023-04-07T10:16:46;101580.59;;;10.50;76.65
78016;BME280;67223;51.102;5.882;2023-04-07T10:19:12;101578.88;;;10.49;76.30
78016;BME280;67223;51.102;5.882;2023-04-07T10:21:40;101577.59;;;10.55;76.17
78016;BME280;67223;51.102;5.882;2023-04-07T10:24:45;101581.84;;;10.45;75.30
78016;BME280;67223;51.102;5.882;2023-04-07T10:27:17;101579.81;;;10.48;76.40
78016;BME280;67223;51.102;5.882;2023-04-07T10:29:45;101585.94;;;10.50;76.45
78016;BME280;67223;51.102;5.882;2023-04-07T10:32:13;101584.63;;;10.30;76.67
78016;BME280;67223;51.102;5.882;2023-04-07T10:37:15;101591.22;;;10.38;77.12
78016;BME280;67223;51.102;5.882;2023-04-07T10:40:25;101584.53;;;10.45;77.08
78016;BME280;67223;51.102;5.882;2023-04-07T10:45:07;101593.03;;;10.24;77.20
78016;BME280;67223;51.102;5.882;2023-04-07T10:50:19;101600.31;;;10.35;77.50
78016;BME280;67223;51.102;5.882;2023-04-07T10:52:46;101597.66;;;10.48;76.84
78016;BME280;67223;51.102;5.882;2023-04-07T11:03:38;101596.22;;;10.17;76.60
78016;BME280;67223;51.102;5.882;2023-04-07T11:06:06;101600.09;;;10.38;76.48
78016;BME280;67223;51.102;5.882;2023-04-07T11:08:41;101603.41;;;10.42;76.95
78016;BME280;67223;51.102;5.882;2023-04-07T11:11:08;101602.69;;;10.40;77.26
78016;BME280;67223;51.102;5.882;2023-04-07T11:13:43;101603.00;;;10.48;76.83
78016;BME280;67223;51.102;5.882;2023-04-07T11:16:11;101600.97;;;10.51;76.80
78016;BME280;67223;51.102;5.882;2023-04-07T11:18:37;101602.69;;;10.40;76.87
78016;BME280;67223;51.102;5.882;2023-04-07T11:21:03;101608.03;;;10.40;76.63
78016;BME280;67223;51.102;5.882;2023-04-07T11:23:37;101599.78;;;10.30;76.70
78016;BME280;67223;51.102;5.882;2023-04-07T11:26:03;101606.84;;;10.31;76.98
78016;BME280;67223;51.102;5.882;2023-04-07T11:28:29;101612.38;;;10.28;76.58
78016;BME280;67223;51.102;5.882;2023-04-07T11:30:55;101606.13;;;10.15;77.32
78016;BME280;67223;51.102;5.882;2023-04-07T11:33:27;101618.44;;;10.17;77.69
78016;BME280;67223;51.102;5.882;2023-04-07T11:36:01;101614.28;;;9.99;77.85
78016;BME280;67223;51.102;5.882;2023-04-07T11:38:29;101618.25;;;10.06;77.51
78016;BME280;67223;51.102;5.882;2023-04-07T11:41:11;101618.13;;;9.95;77.27
78016;BME280;67223;51.102;5.882;2023-04-07T11:43:37;101613.47;;;10.11;77.66
78016;BME280;67223;51.102;5.882;2023-04-07T11:46:14;101625.22;;;10.09;77.08
78016;BME280;67223;51.102;5.882;2023-04-07T11:48:41;101625.84;;;10.12;76.23
78016;BME280;67223;51.102;5.882;2023-04-07T11:51:18;101622.09;;;10.29;76.10
78016;BME280;67223;51.102;5.882;2023-04-07T11:53:44;101630.25;;;10.40;76.76
78016;BME280;67223;51.102;5.882;2023-04-07T11:56:12;101618.38;;;10.57;75.62
78016;BME280;67223;51.102;5.882;2023-04-07T11:58:49;101626.28;;;10.46;75.02
78016;BME280;67223;51.102;5.882;2023-04-07T12:01:15;101634.22;;;10.60;74.41
78016;BME280;67223;51.102;5.882;2023-04-07T12:03:58;101626.22;;;10.85;74.19
78016;BME280;67223;51.102;5.882;2023-04-07T12:06:28;101632.41;;;10.98;74.77
78016;BME280;67223;51.102;5.882;2023-04-07T12:08:55;101633.78;;;11.04;73.13
78016;BME280;67223;51.102;5.882;2023-04-07T12:11:20;101630.75;;;11.34;72.65
78016;BME280;67223;51.102;5.882;2023-04-07T12:13:46;101630.75;;;11.70;73.38
78016;BME280;67223;51.102;5.882;2023-04-07T12:16:11;101631.75;;;11.56;72.21
78016;BME280;67223;51.102;5.882;2023-04-07T12:18:37;101635.31;;;11.44;70.95
78016;BME280;67223;51.102;5.882;2023-04-07T12:21:02;101637.50;;;11.63;71.02
78016;BME280;67223;51.102;5.882;2023-04-07T12:23:28;101640.09;;;11.64;72.17
78016;BME280;67223;51.102;5.882;2023-04-07T12:25:53;101636.09;;;11.34;70.42
78016;BME280;67223;51.102;5.882;2023-04-07T12:28:19;101646.34;;;11.40;70.97
78016;BME280;67223;51.102;5.882;2023-04-07T12:30:45;101646.41;;;11.51;71.21
78016;BME280;67223;51.102;5.882;2023-04-07T12:33:11;101642.78;;;11.52;70.88
78016;BME280;67223;51.102;5.882;2023-04-07T12:35:36;101645.50;;;11.27;71.27
78016;BME280;67223;51.102;5.882;2023-04-07T12:38:03;101644.75;;;11.37;71.95
78016;BME280;67223;51.102;5.882;2023-04-07T12:40:29;101658.97;;;11.38;71.66
78016;BME280;67223;51.102;5.882;2023-04-07T12:42:55;101651.09;;;11.23;71.76
78016;BME280;67223;51.102;5.882;2023-04-07T12:45:23;101656.66;;;11.20;71.37
78016;BME280;67223;51.102;5.882;2023-04-07T12:47:48;101660.28;;;11.07;71.78
78016;BME280;67223;51.102;5.882;2023-04-07T12:50:14;101657.63;;;10.94;72.49
78016;BME280;67223;51.102;5.882;2023-04-07T12:52:40;101662.97;;;10.94;72.41
78016;BME280;67223;51.102;5.882;2023-04-07T12:55:06;101663.06;;;10.93;73.39
78016;BME280;67223;51.102;5.882;2023-04-07T12:57:31;101665.41;;;10.97;73.32
78016;BME280;67223;51.102;5.882;2023-04-07T12:59:57;101667.56;;;11.05;74.06
78016;BME280;67223;51.102;5.882;2023-04-07T13:02:23;101659.88;;;11.00;73.13
78016;BME280;67223;51.102;5.882;2023-04-07T13:04:48;101666.28;;;10.85;73.27
78016;BME280;67223;51.102;5.882;2023-04-07T13:07:14;101667.56;;;10.79;73.27
78016;BME280;67223;51.102;5.882;2023-04-07T13:09:40;101664.34;;;10.87;72.80
78016;BME280;67223;51.102;5.882;2023-04-07T13:12:12;101664.56;;;10.84;73.94
78016;BME280;67223;51.102;5.882;2023-04-07T13:14:38;101665.63;;;10.69;74.08
78016;BME280;67223;51.102;5.882;2023-04-07T13:17:05;101673.88;;;10.78;73.93
78016;BME280;67223;51.102;5.882;2023-04-07T13:19:31;101664.25;;;11.14;74.49
78016;BME280;67223;51.102;5.882;2023-04-07T13:21:57;101666.81;;;11.15;73.72
78016;BME280;67223;51.102;5.882;2023-04-07T13:24:22;101667.66;;;11.16;72.68